Friday, October 19, 2018, 10:41 AM CDT
Back to Local

KMDW, Chicago Midway Airport

Location: Chicago, IL, United States Lat: 41.783
Local Time: 10:41 AM CDT (15:41 GMT) Lon: -87.75
Time Zone: US/Central Elev: 620 ft

Show me the last for .
Show Decoded

2018-10-19 09:53 METAR KMDW 191453Z 21012G20KT 10SM BKN120 OVC150 09/01 A3009 RMK AO2 SLP193
                 T00940006 58019 =
2018-10-19 08:53 METAR KMDW 191353Z 22010KT 10SM BKN160 BKN200 OVC250 09/01 A3013 RMK AO2 SLP205
                 T00940006 =
2018-10-19 07:53 METAR KMDW 191253Z 21009G18KT 10SM SCT150 BKN200 BKN250 09/00 A3014 RMK AO2
                 SLP209 T00890000 =
2018-10-19 06:53 METAR KMDW 191153Z 21008KT 10SM SCT150 BKN200 BKN250 08/M01 A3015 RMK AO2 SLP212
                 T00831006 10083 20072 58025 =
2018-10-19 05:53 METAR KMDW 191053Z 21008G18KT 10SM SCT190 OVC240 08/M01 A3018 RMK AO2 SLP222
                 T00781011 =
2018-10-19 04:53 METAR KMDW 190953Z 21008KT 10SM OVC250 08/M01 A3020 RMK AO2 SLP229 T00781011 =
2018-10-19 03:53 METAR KMDW 190853Z 21007KT 10SM OVC250 08/M01 A3023 RMK AO2 SLP237 T00781011
                 58019 =
2018-10-19 02:53 METAR KMDW 190753Z 22010KT 10SM BKN250 08/M01 A3025 RMK AO2 SLP245 T00781011 =
2018-10-19 01:53 METAR KMDW 190653Z 22006KT 10SM BKN250 08/M01 A3026 RMK AO2 SLP251 T00781011 =
2018-10-19 00:53 METAR KMDW 190553Z COR 21006KT 10SM FEW250 08/M01 A3028 RMK AO2 SLP258 T00781011
                 10122 20078 401440011 57013 =
2018-10-18 23:53 METAR KMDW 190453Z 23005KT 10SM CLR 08/M01 A3029 RMK AO2 SLP261 T00831011 =
2018-10-18 22:53 METAR KMDW 190353Z 21008KT 10SM CLR 09/M02 A3031 RMK AO2 SLP267 T00891017 =
2018-10-18 21:53 METAR KMDW 190253Z 22006G18KT 10SM CLR 10/M02 A3032 RMK AO2 SLP272 T01001022
                 58008 =
2018-10-18 20:53 METAR KMDW 190153Z 21007KT 10SM CLR 10/M02 A3034 RMK AO2 SLP278 T01001022 =
2018-10-18 19:53 METAR KMDW 190053Z 20009G16KT 10SM CLR 11/M02 A3034 RMK AO2 SLP281 T01111022 =
2018-10-18 18:53 METAR KMDW 182353Z 19006KT 10SM CLR 12/M03 A3035 RMK AO2 SLP282 T01221028 10144
                 20117 56018 =
2018-10-18 17:53 METAR KMDW 182253Z 21007KT 10SM CLR 13/M04 A3036 RMK AO2 SLP286 T01331039 =
2018-10-18 16:53 METAR KMDW 182153Z 22008KT 10SM CLR 14/M03 A3038 RMK AO2 SLP292 T01391033 =
2018-10-18 15:53 METAR KMDW 182053Z 25012KT 10SM CLR 14/M03 A3040 RMK AO2 SLP299 T01441033 56028
                 =
2018-10-18 14:53 METAR KMDW 181953Z 21012G16KT 10SM CLR 14/M03 A3042 RMK AO2 SLP304 T01391028 =
2018-10-18 13:53 METAR KMDW 181853Z 25011G15KT 10SM CLR 13/M03 A3044 RMK AO2 SLP314 T01331028 =
2018-10-18 12:53 METAR KMDW 181753Z 24010KT 10SM CLR 12/M03 A3048 RMK AO2 SLP328 T01221028 10122
                 20011 58015 =
2018-10-18 11:53 METAR KMDW 181653Z 23009KT 10SM CLR 12/M03 A3052 RMK AO2 SLP338 T01171033 =
2018-10-18 10:53 METAR KMDW 181553Z 24011KT 10SM CLR 11/M04 A3053 RMK AO2 SLP342 T01061039 =

Support USWX by starting your Amazon purchase here.